Hovedside
METAR-TAF:

METAR-TAF

Lufthavner :

Alofi, Niue

breddegrad: 19-04S, lengdegrad: 169-55W, høyde over havet: 20 m

Gjeldene værobservasjon

Denne rapporten ble laget for 15 minutter siden, klokken 03:30 UTC
Vind 6 kt fra Nord
Temperatur 28°C
Luftfuktighet 70%
Trykk 1010 hPa
Sikt 10 km eller mer

METAR: NIUE 200330Z AUTO 36006KT 9999 NCD 28/22 Q1010

Tid: 16:45 (03:45 UTC)

Varsel

Denne rapporten ble laget for 4 timer og 40 minutter siden, klokken 23:05 UTC
Varsel gyldig fra 20. klokken 00 UTC til 20. klokken 24 UTC
Vind 7 kt fra Nord
Sikt 10 km eller mer
Spredte skyer i en høyde av 2000 ft
Brutte skyer i en høyde av 4000 ft
Sannsynlighet 40% :
Midlertidig
fra 20. klokken 18 UTC til 20. klokken 24 UTC
Sikt: 5000 m
Brutte skyer i en høyde av 1500 ft
regnbyger,

TAF: NIUE 192305Z 2000/2024 35007KT 9999 SCT020 BKN040 PROB40 TEMPO 2018/2024 5000 SHRA BKN015

Værobservasjoner og værvarsel for over 4000 flyplasser (METAR- og TAF-rapporter).

Tilgjengelige stasjoner er representert av de røde og gule prikkene på kartet.

Hold musepekeren over prikken for å se navnet på stasjonen.

Klikk så for å se værobservasjoner og -varsler.

For å forandre kartet kan du klikke på den grønne knappen med svart kryss for å zoome inn, på den grønne knappen med strek for å zoome ut, eller på de grønne pilene for å se tilstøtende kart.


METAR-TAF: